4AL2 weather

St Vincent's BLT Heliport
Oneonta, Alabama, United States

Public forecast

Using degrees Fahrenheit for public forecast. Weather courtesy of forecast.io.

Closest aviation weather report (METAR) to St Vincent's BLT Heliport

Closest report is Northeast Alabama Regional Airport, 20.4 nm (37.7 km) E. Retrieved 2019/10/15 17:56 UTC (45 minutes ago):

KGAD 151756Z AUTO 16003KT 10SM BKN013 OVC019 21/18 A3004 RMK AO2 SLP172 T02060178 10211 20172 58014

Closest aviation forecast (TAF) to St Vincent's BLT Heliport

Closest forecast is Birmingham-Shuttlesworth International Airport, 25.5 nm (47.3 km) SSW. Retrieved 2019/10/15 18:22 UTC (19 minutes ago):

TAF KBHM 151720Z 1518/1618 05004KT 6SM -RA BR OVC007 FM160600 23003KT 2SM BR VCSH OVC005 FM161400 32010KT 4SM BR VCSH BKN015